Guiding, China
Current Conditions -  °F | °C
As of 1:00 AM on Tuesday 25 Nov 2014 (Local Time) from ZUGY Reporting Station
Light Rain Light Rain  
Wind Chill: 46°   Ceiling: 800
Heat Index: 48°   Visibility: 3mi
Dew Point: 48°   Wind: 4mph
Humidity: 100%   Direction: 40°NE
Pressure: 30.12"   Gusts: NA
Location:  26.57°N, 107.23°E
Report Text: ZUGY 241700Z 04002MPS 010V070 5000 -RA BR SCT004BKN008OVC023 09/09 Q1020 NOSIG
Loading
Personal Weather Stations






























Interactive Weather Map New forecast layout! Learn more

10-Day Weather Forecast

Advertisements
Track Severe Weather on mobile